createdAt,value
2022-09-28T00:02:08.569Z,4.60
2022-09-28T00:04:35.713Z,2.70
2022-09-28T00:07:02.964Z,2.25
2022-09-28T00:09:30.040Z,3.20
2022-09-28T00:11:57.726Z,4.35
2022-09-28T00:14:25.378Z,3.25
2022-09-28T00:16:52.756Z,3.35
2022-09-28T00:19:19.984Z,3.22
2022-09-28T00:21:47.975Z,3.20
2022-09-28T00:24:26.657Z,4.50
2022-09-28T00:26:56.068Z,5.32
2022-09-28T00:29:27.695Z,3.08
2022-09-28T00:31:59.940Z,3.42
2022-09-28T00:34:32.539Z,2.28
2022-09-28T00:36:59.857Z,2.80
2022-09-28T00:39:27.134Z,4.75
2022-09-28T00:41:55.154Z,4.72
2022-09-28T00:44:22.239Z,2.67
2022-09-28T00:46:50.763Z,4.43
2022-09-28T00:49:19.476Z,3.20
2022-09-28T00:51:48.477Z,2.78
2022-09-28T00:56:43.700Z,2.90
2022-09-28T00:59:11.063Z,5.40
2022-09-28T01:01:38.267Z,5.25
2022-09-28T01:04:06.004Z,2.60
2022-09-28T01:06:35.732Z,3.60
2022-09-28T01:09:05.163Z,3.00
2022-09-28T01:11:33.619Z,3.97
2022-09-28T01:14:01.863Z,3.97
2022-09-28T01:16:38.346Z,3.65
2022-09-28T01:19:18.618Z,3.47
2022-09-28T01:22:02.570Z,2.95
2022-09-28T01:24:32.927Z,3.72
2022-09-28T01:27:06.060Z,3.63
2022-09-28T01:29:45.185Z,4.45
2022-09-28T01:32:24.045Z,3.78
2022-09-28T01:34:55.470Z,4.70
2022-09-28T01:37:26.331Z,3.28
2022-09-28T01:39:55.103Z,3.83
2022-09-28T01:42:28.021Z,4.47
2022-09-28T01:44:56.634Z,4.47
2022-09-28T01:47:25.256Z,4.05
2022-09-28T01:50:18.489Z,2.05
2022-09-28T01:53:09.042Z,2.90
2022-09-28T01:55:39.527Z,4.97
2022-09-28T01:58:12.751Z,3.80
2022-09-28T02:00:42.203Z,3.15
2022-09-28T02:03:12.538Z,2.95
2022-09-28T02:05:41.226Z,3.13
2022-09-28T02:08:08.319Z,5.18
2022-09-28T02:10:40.851Z,3.58
2022-09-28T02:13:19.020Z,3.95
2022-09-28T02:15:55.457Z,2.10
2022-09-28T02:18:22.665Z,1.85
2022-09-28T02:20:54.604Z,2.72
2022-09-28T02:23:23.113Z,3.15
2022-09-28T02:25:57.082Z,2.65
2022-09-28T02:28:24.130Z,3.00
2022-09-28T02:30:51.244Z,2.60
2022-09-28T02:33:30.015Z,6.00
2022-09-28T02:35:58.201Z,4.60
2022-09-28T02:38:25.304Z,2.92
2022-09-28T02:41:04.678Z,2.78
2022-09-28T02:43:50.366Z,1.83
2022-09-28T02:46:26.778Z,2.67
2022-09-28T02:49:20.778Z,1.83
2022-09-28T02:52:14.227Z,2.20
2022-09-28T02:54:54.595Z,1.40
2022-09-28T02:57:40.767Z,3.83
2022-09-28T03:00:10.593Z,2.70
2022-09-28T03:02:56.039Z,3.20
2022-09-28T03:05:35.135Z,2.25
2022-09-28T03:08:08.106Z,2.20
2022-09-28T03:10:40.014Z,3.60
2022-09-28T03:13:08.682Z,1.85
2022-09-28T03:15:36.731Z,2.22
2022-09-28T03:18:04.160Z,2.00
2022-09-28T03:20:32.198Z,1.83
2022-09-28T03:23:23.782Z,0.90
2022-09-28T03:25:46.368Z,1.58
2022-09-28T03:28:13.456Z,4.93
2022-09-28T03:30:41.098Z,1.42
2022-09-28T03:33:08.246Z,1.15
2022-09-28T03:35:35.544Z,2.95
2022-09-28T03:38:02.613Z,4.30
2022-09-28T03:40:29.790Z,2.13
2022-09-28T03:42:57.093Z,1.25
2022-09-28T03:45:24.196Z,1.75
2022-09-28T03:47:51.829Z,2.30
2022-09-28T03:50:18.903Z,3.75
2022-09-28T03:52:46.098Z,8.23
2022-09-28T03:55:13.240Z,3.92
2022-09-28T03:57:40.292Z,3.38
2022-09-28T04:00:07.607Z,2.40
2022-09-28T04:02:35.179Z,2.42
2022-09-28T04:05:02.571Z,1.15
2022-09-28T04:07:31.246Z,1.45
2022-09-28T04:09:59.038Z,0.75
2022-09-28T04:12:26.095Z,1.80
2022-09-28T04:14:53.241Z,2.65
2022-09-28T04:17:22.405Z,2.40
2022-09-28T04:19:49.475Z,2.08
2022-09-28T04:22:16.549Z,2.60
2022-09-28T04:24:43.642Z,1.02
2022-09-28T04:27:29.536Z,0.50
2022-09-28T04:29:56.651Z,0.95
2022-09-28T04:32:24.101Z,1.08
2022-09-28T04:34:51.865Z,1.20
2022-09-28T04:37:19.051Z,0.80
2022-09-28T04:39:48.468Z,1.13
2022-09-28T04:42:16.097Z,2.00
2022-09-28T04:44:43.348Z,2.60
2022-09-28T04:47:11.743Z,3.42
2022-09-28T04:49:38.833Z,4.63
2022-09-28T04:52:06.614Z,3.45
2022-09-28T04:54:34.027Z,8.40
2022-09-28T04:57:01.758Z,3.33
2022-09-28T04:59:28.831Z,4.47
2022-09-28T05:01:56.073Z,2.63
2022-09-28T05:04:26.001Z,2.08
2022-09-28T05:06:53.420Z,1.65
2022-09-28T05:09:20.499Z,8.50
2022-09-28T05:11:49.843Z,2.40
2022-09-28T05:14:17.190Z,3.47
2022-09-28T05:16:45.264Z,2.33
2022-09-28T05:19:12.495Z,1.02
2022-09-28T05:21:39.711Z,2.22
2022-09-28T05:24:07.674Z,2.85
2022-09-28T05:26:35.380Z,1.13
2022-09-28T05:29:02.435Z,3.03
2022-09-28T05:31:29.662Z,3.10
2022-09-28T05:33:56.772Z,1.35
2022-09-28T05:36:26.751Z,1.67
2022-09-28T05:38:53.845Z,3.25
2022-09-28T05:41:21.046Z,3.83
2022-09-28T05:43:52.619Z,0.90
2022-09-28T05:46:21.156Z,1.27
2022-09-28T05:48:48.275Z,2.47
2022-09-28T05:51:15.399Z,2.03
2022-09-28T05:53:42.468Z,2.05
2022-09-28T05:56:09.624Z,3.60
2022-09-28T05:58:36.701Z,0.90
2022-09-28T06:01:03.943Z,3.47
2022-09-28T06:03:31.180Z,2.63
2022-09-28T06:06:01.322Z,1.52
2022-09-28T06:08:29.173Z,2.10
2022-09-28T06:10:59.955Z,2.17
2022-09-28T06:13:27.847Z,1.30
2022-09-28T06:15:55.193Z,1.63
2022-09-28T06:18:22.306Z,1.25
2022-09-28T06:20:49.546Z,2.05
2022-09-28T06:23:16.816Z,2.50
2022-09-28T06:25:43.917Z,0.88
2022-09-28T06:28:12.279Z,2.63
2022-09-28T06:30:39.958Z,1.33
2022-09-28T06:33:08.284Z,1.60
2022-09-28T06:35:35.792Z,2.95
2022-09-28T06:38:02.941Z,2.95
2022-09-28T06:40:30.152Z,2.55
2022-09-28T06:43:10.578Z,1.35
2022-09-28T06:45:38.599Z,2.10
2022-09-28T06:48:06.347Z,2.50
2022-09-28T06:50:37.754Z,1.20
2022-09-28T06:53:06.908Z,2.58
2022-09-28T06:55:34.088Z,7.03
2022-09-28T06:58:02.239Z,1.88
2022-09-28T07:00:31.231Z,1.27
2022-09-28T07:05:29.379Z,4.35
2022-09-28T07:07:57.101Z,2.28
2022-09-28T07:10:30.516Z,3.90
2022-09-28T07:13:02.435Z,2.50
2022-09-28T07:15:29.663Z,2.80
2022-09-28T07:18:04.276Z,2.92
2022-09-28T07:20:45.345Z,1.63
2022-09-28T07:23:19.772Z,1.77
2022-09-28T07:25:50.183Z,5.65
2022-09-28T07:28:17.568Z,1.15
2022-09-28T07:30:44.993Z,2.70
2022-09-28T07:33:14.349Z,1.88
2022-09-28T07:35:44.276Z,2.30
2022-09-28T07:38:12.044Z,5.53
2022-09-28T07:40:58.012Z,2.28
2022-09-28T07:43:25.226Z,3.20
2022-09-28T07:45:56.846Z,2.97
2022-09-28T07:48:24.022Z,1.98
2022-09-28T07:50:58.306Z,3.58
2022-09-28T07:53:28.845Z,1.55
2022-09-28T07:55:57.258Z,4.35
2022-09-28T07:58:24.329Z,2.40
2022-09-28T08:00:51.514Z,2.53
2022-09-28T08:03:19.743Z,2.30
2022-09-28T08:05:47.444Z,3.75
2022-09-28T08:08:14.974Z,2.80
2022-09-28T08:10:47.155Z,1.85
2022-09-28T08:13:20.385Z,4.82
2022-09-28T08:15:51.831Z,3.25
2022-09-28T08:18:22.227Z,3.30
2022-09-28T08:21:11.508Z,2.47
2022-09-28T08:23:38.707Z,5.85
2022-09-28T08:26:06.722Z,2.40
2022-09-28T08:28:35.168Z,3.25
2022-09-28T08:31:02.410Z,3.45
2022-09-28T08:33:29.683Z,3.30
2022-09-28T08:36:01.017Z,2.90
2022-09-28T08:38:29.397Z,3.13
2022-09-28T08:41:04.405Z,3.97
2022-09-28T08:46:00.068Z,3.40
2022-09-28T08:48:48.549Z,1.83
2022-09-28T08:51:26.778Z,2.67
2022-09-28T08:53:56.654Z,1.88
2022-09-28T08:56:44.319Z,5.88
2022-09-28T08:59:19.423Z,2.70
2022-09-28T09:02:15.638Z,2.72
2022-09-28T09:04:42.976Z,3.10
2022-09-28T09:07:16.589Z,3.60
2022-09-28T09:09:52.751Z,3.13
2022-09-28T09:12:26.327Z,3.00
2022-09-28T09:14:59.344Z,3.08
2022-09-28T09:17:41.756Z,3.63
2022-09-28T09:20:16.635Z,4.43
2022-09-28T09:22:55.284Z,2.55
2022-09-28T09:25:26.349Z,3.58
2022-09-28T09:28:12.100Z,2.50
2022-09-28T09:30:46.036Z,3.05
2022-09-28T09:33:13.314Z,4.20
2022-09-28T09:35:53.039Z,2.95
2022-09-28T09:38:22.669Z,3.83
2022-09-28T09:40:56.007Z,2.80
2022-09-28T09:43:36.881Z,2.10
2022-09-28T09:46:12.985Z,2.67
2022-09-28T09:48:42.828Z,3.40
2022-09-28T09:51:17.713Z,2.90
2022-09-28T09:53:49.469Z,2.35
2022-09-28T09:56:23.760Z,3.50
2022-09-28T09:58:56.095Z,2.75
2022-09-28T10:01:30.702Z,3.55
2022-09-28T10:04:00.116Z,2.08
2022-09-28T10:06:28.828Z,2.70
2022-09-28T10:09:04.276Z,2.80
2022-09-28T10:11:37.606Z,3.03
2022-09-28T10:14:06.502Z,2.10
2022-09-28T10:19:01.065Z,2.08
2022-09-28T10:21:28.400Z,2.75
2022-09-28T10:23:59.390Z,5.38
2022-09-28T10:26:30.029Z,2.70
2022-09-28T10:29:01.177Z,2.42
2022-09-28T10:31:35.452Z,2.03
2022-09-28T10:34:02.830Z,2.67
2022-09-28T10:36:29.974Z,2.38
2022-09-28T10:38:57.875Z,3.15
2022-09-28T10:41:25.987Z,2.00
2022-09-28T10:44:06.283Z,2.30
2022-09-28T10:46:35.892Z,2.72
2022-09-28T10:49:09.535Z,1.38
2022-09-28T10:51:46.940Z,1.85
2022-09-28T10:54:16.428Z,2.60
2022-09-28T10:56:44.001Z,2.30
2022-09-28T10:59:24.110Z,2.00
2022-09-28T11:02:02.285Z,2.20
2022-09-28T11:04:30.599Z,3.42
2022-09-28T11:09:31.867Z,2.47
2022-09-28T11:11:59.598Z,1.33
2022-09-28T11:14:28.500Z,1.63
2022-09-28T11:19:22.633Z,2.75
2022-09-28T11:21:49.757Z,2.67
2022-09-28T11:24:19.122Z,3.13
2022-09-28T11:26:47.989Z,2.60
2022-09-28T11:29:22.773Z,1.77
2022-09-28T11:31:50.078Z,1.77
2022-09-28T11:34:31.017Z,3.58
2022-09-28T11:37:21.055Z,2.55
2022-09-28T11:40:00.482Z,1.00
2022-09-28T11:42:34.587Z,2.00
2022-09-28T11:45:11.643Z,2.20
2022-09-28T11:47:46.504Z,1.83
2022-09-28T11:50:24.523Z,1.55
2022-09-28T11:53:12.083Z,1.40
2022-09-28T11:58:14.873Z,2.38
2022-09-28T12:00:48.642Z,1.42
2022-09-28T12:03:19.050Z,1.67
2022-09-28T12:05:56.697Z,3.58
2022-09-28T12:08:35.420Z,3.10
2022-09-28T12:11:11.931Z,1.02
2022-09-28T12:13:41.131Z,2.13
2022-09-28T12:19:16.588Z,0.98
2022-09-28T12:21:46.366Z,1.48
2022-09-28T12:24:19.395Z,1.73
2022-09-28T12:27:05.087Z,1.52
2022-09-28T12:29:41.530Z,0.55
2022-09-28T12:32:27.600Z,2.45
2022-09-28T12:34:54.902Z,0.98
2022-09-28T12:37:39.882Z,1.63
2022-09-28T12:40:19.405Z,1.85
2022-09-28T12:43:06.994Z,1.27
2022-09-28T12:46:12.051Z,1.92
2022-09-28T12:51:12.731Z,0.95
2022-09-28T12:53:58.460Z,2.72
2022-09-28T12:56:32.439Z,1.48
2022-09-28T12:59:01.019Z,1.35
2022-09-28T13:01:28.191Z,2.55
2022-09-28T13:04:13.848Z,1.48
2022-09-28T13:06:59.474Z,2.45
2022-09-28T13:09:27.939Z,2.00
2022-09-28T13:12:01.227Z,3.95
2022-09-28T13:14:36.955Z,2.05
2022-09-28T13:17:16.026Z,2.63
2022-09-28T13:19:54.943Z,2.35
2022-09-28T13:22:22.016Z,0.77
2022-09-28T13:24:49.711Z,2.63
2022-09-28T13:27:20.836Z,2.45
2022-09-28T13:29:50.410Z,1.45
2022-09-28T13:32:18.238Z,1.02
2022-09-28T13:34:48.697Z,2.03
2022-09-28T13:37:21.975Z,2.80
2022-09-28T13:39:52.582Z,2.25
2022-09-28T13:42:24.448Z,1.63
2022-09-28T13:44:59.448Z,1.48
2022-09-28T13:47:32.568Z,2.00
2022-09-28T13:50:02.484Z,1.30
2022-09-28T13:52:44.105Z,1.73
2022-09-28T13:55:15.660Z,0.82
2022-09-28T13:58:01.180Z,1.40
2022-09-28T14:00:47.230Z,2.20
2022-09-28T14:03:23.546Z,1.70
2022-09-28T14:06:04.388Z,0.95
2022-09-28T14:08:34.593Z,0.73
2022-09-28T14:11:24.646Z,3.28
2022-09-28T14:14:07.354Z,0.98
2022-09-28T14:16:35.535Z,0.98
2022-09-28T14:19:21.249Z,0.95
2022-09-28T14:22:07.031Z,2.42
2022-09-28T14:24:34.121Z,0.60
2022-09-28T14:27:01.182Z,1.52
2022-09-28T14:29:32.757Z,1.60
2022-09-28T14:32:05.225Z,1.58
2022-09-28T14:34:34.582Z,0.88
2022-09-28T14:37:21.960Z,0.85
2022-09-28T14:40:08.173Z,0.88
2022-09-28T14:42:35.382Z,2.03
2022-09-28T14:45:06.189Z,0.73
2022-09-28T14:47:37.454Z,1.08
2022-09-28T14:50:22.217Z,2.47
2022-09-28T14:52:54.154Z,0.90
2022-09-28T14:55:30.099Z,0.70
2022-09-28T14:57:58.581Z,1.15
2022-09-28T15:00:27.239Z,3.40
2022-09-28T15:02:56.019Z,2.58
2022-09-28T15:05:31.390Z,1.65
2022-09-28T15:07:59.074Z,2.30
2022-09-28T15:10:31.278Z,1.48
2022-09-28T15:13:05.881Z,2.63
2022-09-28T15:15:33.144Z,2.35
2022-09-28T15:18:08.932Z,1.10
2022-09-28T15:20:38.533Z,1.27
2022-09-28T15:23:05.634Z,1.25
2022-09-28T15:25:33.956Z,0.80
2022-09-28T15:28:16.512Z,2.83
2022-09-28T15:30:43.801Z,2.45
2022-09-28T15:33:42.683Z,1.13
2022-09-28T15:36:13.596Z,1.95
2022-09-28T15:38:41.676Z,2.28
2022-09-28T15:41:10.312Z,2.50
2022-09-28T15:43:37.919Z,0.80
2022-09-28T15:46:05.066Z,1.67
2022-09-28T15:48:37.511Z,1.65
2022-09-28T15:51:11.646Z,1.33
2022-09-28T15:54:02.967Z,1.00
2022-09-28T15:56:30.602Z,0.93
2022-09-28T15:59:11.581Z,2.10
2022-09-28T16:01:39.731Z,1.85
2022-09-28T16:04:27.232Z,2.28
2022-09-28T16:09:36.109Z,0.68
2022-09-28T16:12:11.821Z,1.10
2022-09-28T16:14:38.962Z,0.77
2022-09-28T16:17:06.068Z,1.65
2022-09-28T16:19:37.006Z,1.67
2022-09-28T16:22:06.533Z,1.90
2022-09-28T16:24:37.512Z,1.30
2022-09-28T16:27:09.118Z,1.75
2022-09-28T16:29:39.940Z,1.90
2022-09-28T16:32:30.213Z,2.80
2022-09-28T16:35:06.517Z,1.92
2022-09-28T16:37:33.732Z,1.70
2022-09-28T16:40:00.853Z,2.85
2022-09-28T16:42:28.124Z,1.33
2022-09-28T16:44:56.221Z,1.73
2022-09-28T16:47:23.990Z,2.15
2022-09-28T16:49:51.671Z,2.40
2022-09-28T16:52:38.727Z,2.15
2022-09-28T16:55:38.892Z,2.13
2022-09-28T16:58:04.677Z,0.93
2022-09-28T17:00:32.439Z,1.55
2022-09-28T17:02:59.901Z,2.17
2022-09-28T17:05:27.050Z,2.17
2022-09-28T17:08:04.015Z,2.60
2022-09-28T17:11:02.172Z,4.45
2022-09-28T17:13:37.342Z,2.50
2022-09-28T17:16:10.413Z,2.40
2022-09-28T17:18:39.665Z,4.30
2022-09-28T17:21:07.986Z,2.95
2022-09-28T17:23:35.070Z,2.78
2022-09-28T17:26:02.586Z,4.00
2022-09-28T17:28:33.831Z,2.50
2022-09-28T17:31:01.080Z,3.58
2022-09-28T17:33:29.206Z,6.68
2022-09-28T17:36:05.383Z,3.22
2022-09-28T17:38:34.155Z,2.90
2022-09-28T17:41:01.254Z,2.50
2022-09-28T17:43:28.507Z,2.58
2022-09-28T17:45:55.660Z,4.07
2022-09-28T17:48:24.286Z,2.88
2022-09-28T17:50:51.487Z,7.22
2022-09-28T17:53:18.632Z,9.07
2022-09-28T17:55:45.766Z,4.22
2022-09-28T17:58:12.819Z,4.65
2022-09-28T18:00:40.211Z,3.47
2022-09-28T18:03:12.456Z,5.57
2022-09-28T18:05:39.817Z,7.00
2022-09-28T18:08:06.894Z,11.00
2022-09-28T18:10:33.995Z,6.32
2022-09-28T18:13:01.074Z,3.45
2022-09-28T18:15:28.202Z,3.38
2022-09-28T18:17:55.325Z,7.03
2022-09-28T18:20:22.588Z,3.40
2022-09-28T18:22:49.717Z,10.52
2022-09-28T18:25:16.884Z,5.28
2022-09-28T18:27:44.048Z,4.07
2022-09-28T18:30:11.300Z,3.00
2022-09-28T18:32:38.770Z,4.28
2022-09-28T18:35:06.574Z,6.05
2022-09-28T18:37:39.932Z,8.80
2022-09-28T18:40:08.393Z,8.60
2022-09-28T18:42:36.216Z,14.85
2022-09-28T18:45:04.951Z,6.68
2022-09-28T18:47:32.818Z,10.50
2022-09-28T18:50:00.153Z,4.90
2022-09-28T18:52:27.781Z,9.43
2022-09-28T18:54:54.893Z,5.85
2022-09-28T18:57:22.611Z,6.18
2022-09-28T18:59:49.698Z,5.82
2022-09-28T19:02:16.843Z,6.15
2022-09-28T19:04:44.113Z,7.93
2022-09-28T19:07:11.233Z,4.43
2022-09-28T19:09:43.801Z,6.00
2022-09-28T19:12:11.642Z,4.43
2022-09-28T19:14:39.011Z,5.32
2022-09-28T19:17:06.104Z,4.88
2022-09-28T19:19:33.437Z,6.28
2022-09-28T19:22:00.692Z,4.85
2022-09-28T19:24:27.946Z,4.47
2022-09-28T19:26:55.039Z,7.65
2022-09-28T19:29:22.680Z,6.00
2022-09-28T19:31:49.939Z,5.65
2022-09-28T19:34:17.287Z,5.32
2022-09-28T19:36:44.687Z,4.78
2022-09-28T19:39:14.253Z,5.43
2022-09-28T19:41:43.418Z,6.00
2022-09-28T19:44:13.456Z,6.07
2022-09-28T19:46:40.851Z,5.15
2022-09-28T19:49:13.271Z,4.68
2022-09-28T19:51:51.477Z,6.70
2022-09-28T19:57:00.630Z,5.00
2022-09-28T19:59:27.749Z,4.88
2022-09-28T20:01:56.241Z,5.75
2022-09-28T20:04:23.630Z,4.75
2022-09-28T20:06:52.398Z,7.47
2022-09-28T20:09:19.618Z,6.93
2022-09-28T20:11:46.832Z,6.43
2022-09-28T20:14:16.068Z,4.93
2022-09-28T20:16:43.198Z,5.97
2022-09-28T20:19:10.353Z,6.85
2022-09-28T20:21:37.811Z,5.40
2022-09-28T20:24:06.181Z,5.43
2022-09-28T20:26:37.760Z,9.23
2022-09-28T20:29:06.720Z,6.45
2022-09-28T20:34:03.326Z,6.95
2022-09-28T20:36:31.874Z,4.47
2022-09-28T20:39:01.804Z,6.75
2022-09-28T20:41:34.728Z,8.15
2022-09-28T20:44:05.314Z,5.53
2022-09-28T20:46:33.321Z,6.18
2022-09-28T20:49:00.678Z,4.38
2022-09-28T20:51:27.910Z,7.65
2022-09-28T20:53:56.121Z,5.55
2022-09-28T20:56:27.011Z,7.72
2022-09-28T20:58:54.723Z,6.28
2022-09-28T21:01:21.897Z,10.27
2022-09-28T21:03:50.309Z,7.50
2022-09-28T21:06:17.961Z,6.10
2022-09-28T21:08:45.864Z,5.57
2022-09-28T21:11:13.800Z,5.53
2022-09-28T21:13:44.460Z,7.28
2022-09-28T21:16:12.409Z,7.22
2022-09-28T21:18:40.171Z,7.30
2022-09-28T21:21:08.276Z,6.03
2022-09-28T21:23:36.072Z,6.10
2022-09-28T21:26:10.227Z,4.97
2022-09-28T21:28:38.243Z,5.55
2022-09-28T21:31:06.262Z,5.93
2022-09-28T21:33:35.043Z,6.63
2022-09-28T21:36:06.271Z,6.88
2022-09-28T21:38:33.703Z,5.75
2022-09-28T21:41:01.241Z,8.00
2022-09-28T21:43:29.525Z,5.75
2022-09-28T21:45:57.672Z,6.78
2022-09-28T21:48:25.596Z,5.85
2022-09-28T21:50:59.896Z,6.75
2022-09-28T21:53:28.920Z,4.90
2022-09-28T21:55:56.486Z,4.78
2022-09-28T21:58:24.930Z,4.85
2022-09-28T22:00:56.915Z,5.60
2022-09-28T22:03:25.784Z,5.90
2022-09-28T22:05:53.908Z,4.80
2022-09-28T22:08:21.247Z,5.88
2022-09-28T22:11:03.418Z,6.28
2022-09-28T22:13:31.796Z,7.50
2022-09-28T22:15:59.030Z,5.00
2022-09-28T22:18:30.402Z,6.55
2022-09-28T22:21:06.561Z,4.35
2022-09-28T22:23:34.453Z,4.35
2022-09-28T22:26:07.050Z,6.72
2022-09-28T22:28:34.808Z,5.60
2022-09-28T22:31:01.957Z,4.43
2022-09-28T22:33:29.088Z,4.72
2022-09-28T22:35:56.288Z,4.82
2022-09-28T22:38:25.039Z,6.38
2022-09-28T22:40:54.121Z,5.32
2022-09-28T22:43:22.644Z,5.28
2022-09-28T22:45:49.963Z,4.60
2022-09-28T22:48:17.035Z,5.97
2022-09-28T22:50:51.060Z,4.75
2022-09-28T22:53:18.498Z,5.38
2022-09-28T22:55:45.859Z,7.25
2022-09-28T22:58:13.495Z,4.10
2022-09-28T23:00:40.736Z,6.50
2022-09-28T23:03:07.986Z,3.97
2022-09-28T23:05:35.108Z,5.00
2022-09-28T23:08:05.467Z,5.93
2022-09-28T23:10:32.585Z,4.93
2022-09-28T23:12:59.724Z,4.75
2022-09-28T23:15:28.531Z,5.10
2022-09-28T23:17:55.815Z,4.93
2022-09-28T23:20:23.775Z,4.78
2022-09-28T23:22:51.239Z,4.05
2022-09-28T23:25:19.570Z,3.97
2022-09-28T23:27:50.952Z,4.57
2022-09-28T23:30:18.987Z,4.68
2022-09-28T23:32:46.493Z,4.63
2022-09-28T23:35:14.396Z,5.03
2022-09-28T23:37:41.448Z,5.97
2022-09-28T23:40:08.683Z,3.90
2022-09-28T23:42:35.850Z,5.65
2022-09-28T23:45:02.957Z,3.92
2022-09-28T23:47:30.034Z,3.80
2022-09-28T23:49:57.109Z,4.53
2022-09-28T23:52:24.183Z,4.55
2022-09-28T23:54:51.269Z,4.53
2022-09-28T23:57:18.463Z,5.22
2022-09-28T23:59:45.597Z,5.75
